createdAt,value
2023-01-07T00:01:40.632Z,19.07
2023-01-07T00:04:11.780Z,23.30
2023-01-07T00:06:41.599Z,20.47
2023-01-07T00:09:16.702Z,18.13
2023-01-07T00:11:44.026Z,18.43
2023-01-07T00:14:13.165Z,17.27
2023-01-07T00:16:41.549Z,18.87
2023-01-07T00:19:15.176Z,18.63
2023-01-07T00:21:42.882Z,16.30
2023-01-07T00:24:11.510Z,16.90
2023-01-07T00:26:39.946Z,16.80
2023-01-07T00:29:09.304Z,15.67
2023-01-07T00:31:40.591Z,17.00
2023-01-07T00:34:09.362Z,17.27
2023-01-07T00:36:43.208Z,15.43
2023-01-07T00:39:28.327Z,15.23
2023-01-07T00:42:13.605Z,17.13
2023-01-07T00:44:40.515Z,19.93
2023-01-07T00:47:07.506Z,18.47
2023-01-07T00:49:34.444Z,16.07
2023-01-07T00:52:02.450Z,16.67
2023-01-07T00:54:29.389Z,18.17
2023-01-07T00:56:56.483Z,16.17
2023-01-07T00:59:23.552Z,15.57
2023-01-07T01:01:50.631Z,15.93
2023-01-07T01:04:17.744Z,20.77
2023-01-07T01:06:44.611Z,15.13
2023-01-07T01:09:12.261Z,15.77
2023-01-07T01:11:39.217Z,17.97
2023-01-07T01:14:06.168Z,17.80
2023-01-07T01:16:33.190Z,15.00
2023-01-07T01:19:00.139Z,16.97
2023-01-07T01:21:27.082Z,17.27
2023-01-07T01:23:54.205Z,16.83
2023-01-07T01:26:21.246Z,23.60
2023-01-07T01:28:51.116Z,20.27
2023-01-07T01:31:18.231Z,21.67
2023-01-07T01:33:45.084Z,24.20
2023-01-07T01:36:13.227Z,17.87
2023-01-07T01:38:41.193Z,21.07
2023-01-07T01:41:08.940Z,19.70
2023-01-07T01:43:40.505Z,16.47
2023-01-07T01:46:33.281Z,17.03
2023-01-07T01:49:28.087Z,19.30
2023-01-07T01:52:07.223Z,21.60
2023-01-07T01:54:34.549Z,22.40
2023-01-07T01:57:05.099Z,19.13
2023-01-07T01:59:40.626Z,19.30
2023-01-07T02:02:07.745Z,20.17
2023-01-07T02:04:35.422Z,20.90
2023-01-07T02:07:06.671Z,20.97
2023-01-07T02:09:34.089Z,21.93
2023-01-07T02:12:32.995Z,27.50
2023-01-07T02:15:20.371Z,19.23
2023-01-07T02:18:07.464Z,20.40
2023-01-07T02:20:47.805Z,19.90
2023-01-07T02:24:04.187Z,21.83
2023-01-07T02:27:14.120Z,22.00
2023-01-07T02:30:02.222Z,22.93
2023-01-07T02:32:40.298Z,24.50
2023-01-07T02:35:36.109Z,20.30
2023-01-07T02:38:33.171Z,21.40
2023-01-07T02:41:31.352Z,18.60
2023-01-07T02:44:16.998Z,19.70
2023-01-07T02:47:01.536Z,18.47
2023-01-07T02:49:28.511Z,20.23
2023-01-07T02:51:55.519Z,17.90
2023-01-07T02:54:28.823Z,20.73
2023-01-07T02:57:24.039Z,20.83
2023-01-07T03:00:19.932Z,22.93
2023-01-07T03:03:14.355Z,19.13
2023-01-07T03:06:06.385Z,21.30
2023-01-07T03:09:00.477Z,21.23
2023-01-07T03:11:37.177Z,21.80
2023-01-07T03:14:19.228Z,19.50
2023-01-07T03:17:03.213Z,14.57
2023-01-07T03:19:35.602Z,21.27
2023-01-07T03:22:07.958Z,15.83
2023-01-07T03:24:36.135Z,17.63
2023-01-07T03:27:06.319Z,17.37
2023-01-07T03:29:35.701Z,19.83
2023-01-07T03:32:22.351Z,19.10
2023-01-07T03:34:49.677Z,21.40
2023-01-07T03:37:22.394Z,15.37
2023-01-07T03:39:50.502Z,19.17
2023-01-07T03:42:42.196Z,19.07
2023-01-07T03:45:24.605Z,16.53
2023-01-07T03:47:54.446Z,16.93
2023-01-07T03:50:22.681Z,18.30
2023-01-07T03:52:51.099Z,17.40
2023-01-07T03:55:18.111Z,18.50
2023-01-07T03:57:45.136Z,18.27
2023-01-07T04:00:13.812Z,20.43
2023-01-07T04:02:41.518Z,18.73
2023-01-07T04:05:10.026Z,18.10
2023-01-07T04:07:37.596Z,16.70
2023-01-07T04:10:08.807Z,15.90
2023-01-07T04:12:35.710Z,16.30
2023-01-07T04:15:04.129Z,12.23
2023-01-07T04:17:31.037Z,15.43
2023-01-07T04:19:57.980Z,14.70
2023-01-07T04:22:24.933Z,14.33
2023-01-07T04:24:52.163Z,12.40
2023-01-07T04:27:19.072Z,13.70
2023-01-07T04:29:46.088Z,16.10
2023-01-07T04:32:13.113Z,13.60
2023-01-07T04:34:40.078Z,17.30
2023-01-07T04:37:07.183Z,13.17
2023-01-07T04:39:34.159Z,12.17
2023-01-07T04:42:01.095Z,14.80
2023-01-07T04:44:27.992Z,15.10
2023-01-07T04:46:54.933Z,16.50
2023-01-07T04:49:21.876Z,26.03
2023-01-07T04:51:48.789Z,19.40
2023-01-07T04:54:15.742Z,16.13
2023-01-07T04:56:42.604Z,17.37
2023-01-07T04:59:09.633Z,15.43
2023-01-07T05:01:36.672Z,15.20
2023-01-07T05:04:03.980Z,15.07
2023-01-07T05:06:30.943Z,15.57
2023-01-07T05:08:58.159Z,17.90
2023-01-07T05:11:25.108Z,16.63
2023-01-07T05:13:52.491Z,17.53
2023-01-07T05:16:19.469Z,16.20
2023-01-07T05:18:46.432Z,14.17
2023-01-07T05:21:13.429Z,11.10
2023-01-07T05:23:40.482Z,12.10
2023-01-07T05:26:07.613Z,8.00
2023-01-07T05:28:34.566Z,12.57
2023-01-07T05:31:02.252Z,10.60
2023-01-07T05:33:29.227Z,9.43
2023-01-07T05:35:56.169Z,9.77
2023-01-07T05:38:23.149Z,9.50
2023-01-07T05:40:50.432Z,12.60
2023-01-07T05:43:17.864Z,10.70
2023-01-07T05:45:46.310Z,10.43
2023-01-07T05:48:14.881Z,10.57
2023-01-07T05:50:42.441Z,13.47
2023-01-07T05:53:09.367Z,10.77
2023-01-07T05:55:38.765Z,14.23
2023-01-07T05:58:07.115Z,12.67
2023-01-07T06:00:36.441Z,13.90
2023-01-07T06:03:05.256Z,13.00
2023-01-07T06:05:32.871Z,12.37
2023-01-07T06:07:59.843Z,11.00
2023-01-07T06:10:27.098Z,11.13
2023-01-07T06:12:54.224Z,10.07
2023-01-07T06:15:21.100Z,12.87
2023-01-07T06:17:48.148Z,8.67
2023-01-07T06:20:15.649Z,9.33
2023-01-07T06:22:43.342Z,11.30
2023-01-07T06:25:11.938Z,8.00
2023-01-07T06:27:40.800Z,9.83
2023-01-07T06:30:12.076Z,7.30
2023-01-07T06:32:41.569Z,10.80
2023-01-07T06:35:11.253Z,8.43
2023-01-07T06:37:38.715Z,7.03
2023-01-07T06:40:06.840Z,7.27
2023-01-07T06:42:34.136Z,7.60
2023-01-07T06:45:01.142Z,8.27
2023-01-07T06:47:28.036Z,7.97
2023-01-07T06:49:55.011Z,8.23
2023-01-07T06:52:22.039Z,7.57
2023-01-07T06:54:49.042Z,7.80
2023-01-07T06:57:15.937Z,6.60
2023-01-07T06:59:42.833Z,6.67
2023-01-07T07:02:22.851Z,6.70
2023-01-07T07:04:50.114Z,9.37
2023-01-07T07:07:18.046Z,8.63
2023-01-07T07:09:46.484Z,12.07
2023-01-07T07:12:13.649Z,9.97
2023-01-07T07:14:40.827Z,10.00
2023-01-07T07:17:07.888Z,8.17
2023-01-07T07:19:34.817Z,8.03
2023-01-07T07:22:03.901Z,15.53
2023-01-07T07:24:31.642Z,14.80
2023-01-07T07:27:00.048Z,9.13
2023-01-07T07:29:27.208Z,8.93
2023-01-07T07:31:54.204Z,9.00
2023-01-07T07:34:21.101Z,9.10
2023-01-07T07:36:47.972Z,7.03
2023-01-07T07:39:15.682Z,6.53
2023-01-07T07:41:42.756Z,8.20
2023-01-07T07:44:09.769Z,6.50
2023-01-07T07:46:36.862Z,6.60
2023-01-07T07:49:04.054Z,9.57
2023-01-07T07:51:31.294Z,6.83
2023-01-07T07:53:58.466Z,9.30
2023-01-07T07:56:25.417Z,9.70
2023-01-07T07:58:52.388Z,7.53
2023-01-07T08:01:19.386Z,7.03
2023-01-07T08:03:46.728Z,6.30
2023-01-07T08:06:13.867Z,6.37
2023-01-07T08:08:41.915Z,5.63
2023-01-07T08:11:08.990Z,5.03
2023-01-07T08:13:36.032Z,5.30
2023-01-07T08:16:03.346Z,6.23
2023-01-07T08:18:30.253Z,4.90
2023-01-07T08:20:57.203Z,4.73
2023-01-07T08:23:24.244Z,3.87
2023-01-07T08:25:51.173Z,5.70
2023-01-07T08:28:18.063Z,6.33
2023-01-07T08:30:45.100Z,7.27
2023-01-07T08:33:12.075Z,5.03
2023-01-07T08:35:39.000Z,4.20
2023-01-07T08:38:09.062Z,4.50
2023-01-07T08:40:37.482Z,4.87
2023-01-07T08:43:07.137Z,3.97
2023-01-07T08:45:34.587Z,4.77
2023-01-07T08:48:01.580Z,4.53
2023-01-07T08:50:32.014Z,4.23
2023-01-07T08:52:59.903Z,7.07
2023-01-07T08:55:26.811Z,4.20
2023-01-07T08:57:53.808Z,4.50
2023-01-07T09:00:21.208Z,6.00
2023-01-07T09:02:48.670Z,7.00
2023-01-07T09:05:15.938Z,4.83
2023-01-07T09:07:43.079Z,5.70
2023-01-07T09:10:11.589Z,4.77
2023-01-07T09:12:38.966Z,5.10
2023-01-07T09:15:06.744Z,6.97
2023-01-07T09:17:33.685Z,8.77
2023-01-07T09:20:03.609Z,7.33
2023-01-07T09:22:35.425Z,7.73
2023-01-07T09:25:03.332Z,7.87
2023-01-07T09:27:32.917Z,7.73
2023-01-07T09:29:59.857Z,10.07
2023-01-07T09:32:28.442Z,9.10
2023-01-07T09:34:55.783Z,8.03
2023-01-07T09:37:23.197Z,6.30
2023-01-07T09:39:50.185Z,6.30
2023-01-07T09:42:52.335Z,6.30
2023-01-07T09:45:34.695Z,6.60
2023-01-07T09:48:10.393Z,8.60
2023-01-07T09:50:50.601Z,6.90
2023-01-07T09:53:32.994Z,8.37
2023-01-07T09:56:11.372Z,22.30
2023-01-07T09:58:42.383Z,12.20
2023-01-07T10:01:53.189Z,14.07
2023-01-07T10:04:25.795Z,9.93
2023-01-07T10:07:36.770Z,9.80
2023-01-07T10:10:28.045Z,9.03
2023-01-07T10:12:58.969Z,9.30
2023-01-07T10:15:47.193Z,17.97
2023-01-07T10:18:46.247Z,11.07
2023-01-07T10:21:26.784Z,9.50
2023-01-07T10:24:03.510Z,20.40
2023-01-07T10:26:48.237Z,21.00
2023-01-07T10:29:33.249Z,10.93
2023-01-07T10:32:09.846Z,9.70
2023-01-07T10:34:50.114Z,9.77
2023-01-07T10:37:38.525Z,8.07
2023-01-07T10:40:39.043Z,10.63
2023-01-07T10:43:19.950Z,8.33
2023-01-07T10:46:05.060Z,10.73
2023-01-07T10:49:01.077Z,11.00
2023-01-07T10:51:45.954Z,12.40
2023-01-07T10:54:48.896Z,9.27
2023-01-07T10:57:23.066Z,10.77
2023-01-07T10:59:57.798Z,8.43
2023-01-07T11:02:27.712Z,11.93
2023-01-07T11:04:59.709Z,9.90
2023-01-07T11:08:04.798Z,11.40
2023-01-07T11:10:36.912Z,7.53
2023-01-07T11:13:14.375Z,8.00
2023-01-07T11:15:53.292Z,10.30
2023-01-07T11:18:52.882Z,7.97
2023-01-07T11:21:46.080Z,8.30
2023-01-07T11:24:34.823Z,9.93
2023-01-07T11:27:14.977Z,9.87
2023-01-07T11:29:46.179Z,9.67
2023-01-07T11:32:28.007Z,9.87
2023-01-07T11:35:02.957Z,8.13
2023-01-07T11:37:39.902Z,9.43
2023-01-07T11:40:12.940Z,9.40
2023-01-07T11:42:59.751Z,8.93
2023-01-07T11:45:37.139Z,11.80
2023-01-07T11:48:36.846Z,10.57
2023-01-07T11:51:10.756Z,9.57
2023-01-07T11:53:49.779Z,10.23
2023-01-07T11:56:36.065Z,8.10
2023-01-07T11:59:14.733Z,8.73
2023-01-07T12:01:52.880Z,9.57
2023-01-07T12:04:27.729Z,9.23
2023-01-07T12:07:16.096Z,7.97
2023-01-07T12:09:45.466Z,8.40
2023-01-07T12:12:34.831Z,8.30
2023-01-07T12:15:20.417Z,8.40
2023-01-07T12:17:52.378Z,8.67
2023-01-07T12:21:05.311Z,9.40
2023-01-07T12:24:17.604Z,7.93
2023-01-07T12:27:12.291Z,9.77
2023-01-07T12:30:20.398Z,7.97
2023-01-07T12:33:11.280Z,9.23
2023-01-07T12:35:43.281Z,8.87
2023-01-07T12:38:31.345Z,9.00
2023-01-07T12:41:12.030Z,9.00
2023-01-07T12:44:06.799Z,7.30
2023-01-07T12:46:45.279Z,8.63
2023-01-07T12:49:35.394Z,7.37
2023-01-07T12:52:40.199Z,5.33
2023-01-07T12:55:44.383Z,5.63
2023-01-07T12:58:37.999Z,5.77
2023-01-07T13:01:15.403Z,5.97
2023-01-07T13:04:05.692Z,5.40
2023-01-07T13:06:53.632Z,6.53
2023-01-07T13:09:59.946Z,6.03
2023-01-07T13:12:47.479Z,6.27
2023-01-07T13:15:34.050Z,5.83
2023-01-07T13:18:19.887Z,6.20
2023-01-07T13:21:10.191Z,5.93
2023-01-07T13:23:58.456Z,8.10
2023-01-07T13:27:04.528Z,6.10
2023-01-07T13:30:14.846Z,5.50
2023-01-07T13:32:58.506Z,5.93
2023-01-07T13:35:53.368Z,5.70
2023-01-07T13:38:48.560Z,5.60
2023-01-07T13:41:35.533Z,5.13
2023-01-07T13:44:49.952Z,7.33
2023-01-07T13:47:21.492Z,5.47
2023-01-07T13:50:00.883Z,5.60
2023-01-07T13:52:32.398Z,6.03
2023-01-07T13:55:02.869Z,7.03
2023-01-07T13:57:29.707Z,6.10
2023-01-07T13:59:59.600Z,5.53
2023-01-07T14:02:57.604Z,5.40
2023-01-07T14:05:28.377Z,5.83
2023-01-07T14:08:02.141Z,5.80
2023-01-07T14:10:35.174Z,5.23
2023-01-07T14:13:09.500Z,6.07
2023-01-07T14:16:07.034Z,5.40
2023-01-07T14:18:58.292Z,5.83
2023-01-07T14:21:45.095Z,6.00
2023-01-07T14:24:43.122Z,6.07
2023-01-07T14:27:32.465Z,5.73
2023-01-07T14:30:20.699Z,5.80
2023-01-07T14:33:01.198Z,6.07
2023-01-07T14:35:40.373Z,6.63
2023-01-07T14:38:29.144Z,5.63
2023-01-07T14:41:16.208Z,6.07
2023-01-07T14:43:43.389Z,5.43
2023-01-07T14:46:36.278Z,5.37
2023-01-07T14:49:28.486Z,5.40
2023-01-07T14:52:13.727Z,6.30
2023-01-07T14:54:58.600Z,6.13
2023-01-07T14:57:59.279Z,8.00
2023-01-07T15:00:56.467Z,7.30
2023-01-07T15:03:49.778Z,5.70
2023-01-07T15:06:25.705Z,6.77
2023-01-07T15:09:24.161Z,6.50
2023-01-07T15:12:16.017Z,6.10
2023-01-07T15:15:25.206Z,5.53
2023-01-07T15:17:52.381Z,6.30
2023-01-07T15:20:19.655Z,5.83
2023-01-07T15:23:10.669Z,6.03
2023-01-07T15:25:57.249Z,8.10
2023-01-07T15:28:52.572Z,8.07
2023-01-07T15:31:32.709Z,8.30
2023-01-07T15:34:15.164Z,8.43
2023-01-07T15:36:46.803Z,8.07
2023-01-07T15:39:41.284Z,8.50
2023-01-07T15:42:20.740Z,8.57
2023-01-07T15:44:56.739Z,8.70
2023-01-07T15:47:41.779Z,9.40
2023-01-07T15:50:29.086Z,9.43
2023-01-07T15:52:57.151Z,10.30
2023-01-07T15:55:40.539Z,13.20
2023-01-07T15:58:16.204Z,9.60
2023-01-07T16:00:43.557Z,9.37
2023-01-07T16:03:17.372Z,9.53
2023-01-07T16:05:44.759Z,9.47
2023-01-07T16:08:25.413Z,8.20
2023-01-07T16:11:08.751Z,8.80
2023-01-07T16:13:36.907Z,10.17
2023-01-07T16:16:06.653Z,9.20
2023-01-07T16:18:33.703Z,9.40
2023-01-07T16:21:06.633Z,9.27
2023-01-07T16:23:36.157Z,9.67
2023-01-07T16:26:08.341Z,8.70
2023-01-07T16:28:57.013Z,9.80
2023-01-07T16:31:26.235Z,13.77
2023-01-07T16:33:57.866Z,9.87
2023-01-07T16:36:37.021Z,10.10
2023-01-07T16:39:18.066Z,10.90
2023-01-07T16:41:45.045Z,10.60
2023-01-07T16:44:48.515Z,10.10
2023-01-07T16:47:33.344Z,9.77
2023-01-07T16:50:16.029Z,9.90
2023-01-07T16:52:54.566Z,9.40
2023-01-07T16:55:52.039Z,12.63
2023-01-07T16:58:29.239Z,10.57
2023-01-07T17:00:59.819Z,11.67
2023-01-07T17:03:28.226Z,11.37
2023-01-07T17:06:08.230Z,10.33
2023-01-07T17:08:36.362Z,10.77
2023-01-07T17:11:18.476Z,11.37
2023-01-07T17:13:45.484Z,11.03
2023-01-07T17:16:31.473Z,10.63
2023-01-07T17:19:26.780Z,12.20
2023-01-07T17:21:55.008Z,10.20
2023-01-07T17:24:43.245Z,12.57
2023-01-07T17:27:21.532Z,10.30
2023-01-07T17:29:49.898Z,12.03
2023-01-07T17:32:17.311Z,10.70
2023-01-07T17:34:44.282Z,11.23
2023-01-07T17:37:15.534Z,12.13
2023-01-07T17:39:44.601Z,10.57
2023-01-07T17:42:41.617Z,12.43
2023-01-07T17:45:14.698Z,12.23
2023-01-07T17:47:41.902Z,12.40
2023-01-07T17:50:09.240Z,11.43
2023-01-07T17:52:36.610Z,11.53
2023-01-07T17:55:04.129Z,12.60
2023-01-07T17:57:31.081Z,13.07
2023-01-07T17:59:58.208Z,14.30
2023-01-07T18:02:30.300Z,12.07
2023-01-07T18:04:57.393Z,12.53
2023-01-07T18:07:24.354Z,12.73
2023-01-07T18:09:51.277Z,12.53
2023-01-07T18:12:33.205Z,14.37
2023-01-07T18:15:02.494Z,15.00
2023-01-07T18:17:30.392Z,17.00
2023-01-07T18:19:57.500Z,13.73
2023-01-07T18:22:25.341Z,12.73
2023-01-07T18:24:52.476Z,12.90
2023-01-07T18:27:19.641Z,12.70
2023-01-07T18:29:46.656Z,11.40
2023-01-07T18:32:13.557Z,11.87
2023-01-07T18:34:40.664Z,11.77
2023-01-07T18:37:07.634Z,11.27
2023-01-07T18:39:34.649Z,10.40
2023-01-07T18:42:01.598Z,12.30
2023-01-07T18:44:28.468Z,11.30
2023-01-07T18:46:55.419Z,11.90
2023-01-07T18:49:22.404Z,13.17
2023-01-07T18:51:49.767Z,13.40
2023-01-07T18:54:17.055Z,16.17
2023-01-07T18:56:45.789Z,13.90
2023-01-07T18:59:13.621Z,12.70
2023-01-07T19:01:40.829Z,12.50
2023-01-07T19:04:08.002Z,12.30
2023-01-07T19:06:35.043Z,14.00
2023-01-07T19:09:02.118Z,14.83
2023-01-07T19:11:29.105Z,15.10
2023-01-07T19:13:56.125Z,14.90
2023-01-07T19:16:23.218Z,14.00
2023-01-07T19:18:50.170Z,14.33
2023-01-07T19:21:17.178Z,17.00
2023-01-07T19:23:44.085Z,13.80
2023-01-07T19:26:12.050Z,13.77
2023-01-07T19:28:38.995Z,14.70
2023-01-07T19:31:08.532Z,15.87
2023-01-07T19:33:36.175Z,15.47
2023-01-07T19:36:09.871Z,15.50
2023-01-07T19:38:45.086Z,16.23
2023-01-07T19:41:16.695Z,14.77
2023-01-07T19:43:45.754Z,15.27
2023-01-07T19:46:15.163Z,16.83
2023-01-07T19:48:42.996Z,19.43
2023-01-07T19:51:10.945Z,18.27
2023-01-07T19:53:37.998Z,24.50
2023-01-07T19:56:09.188Z,27.60
2023-01-07T19:58:37.569Z,23.77
2023-01-07T20:01:07.696Z,25.77
2023-01-07T20:03:36.005Z,24.03
2023-01-07T20:06:10.115Z,24.50
2023-01-07T20:08:38.017Z,23.30
2023-01-07T20:11:06.443Z,24.07
2023-01-07T20:13:35.765Z,26.07
2023-01-07T20:16:09.008Z,18.73
2023-01-07T20:18:41.994Z,20.80
2023-01-07T20:21:10.566Z,19.50
2023-01-07T20:23:39.280Z,18.07
2023-01-07T20:26:11.198Z,20.20
2023-01-07T20:28:38.493Z,19.27
2023-01-07T20:31:13.100Z,20.57
2023-01-07T20:33:41.483Z,20.53
2023-01-07T20:36:16.595Z,22.33
2023-01-07T20:38:44.946Z,20.07
2023-01-07T20:41:20.337Z,21.00
2023-01-07T20:43:59.729Z,23.97
2023-01-07T20:46:29.005Z,23.10
2023-01-07T20:48:56.681Z,23.17
2023-01-07T20:51:24.195Z,29.50
2023-01-07T20:53:51.255Z,20.57
2023-01-07T20:56:21.527Z,22.73
2023-01-07T20:58:49.351Z,22.90
2023-01-07T21:01:20.013Z,20.70
2023-01-07T21:03:47.145Z,24.63
2023-01-07T21:06:17.603Z,23.43
2023-01-07T21:08:46.869Z,21.40
2023-01-07T21:11:17.791Z,23.80
2023-01-07T21:13:45.430Z,22.20
2023-01-07T21:16:13.961Z,21.40
2023-01-07T21:18:41.360Z,23.67
2023-01-07T21:21:21.347Z,25.87
2023-01-07T21:23:48.785Z,25.60
2023-01-07T21:26:17.251Z,26.17
2023-01-07T21:28:44.712Z,23.10
2023-01-07T21:31:15.438Z,24.80
2023-01-07T21:33:43.099Z,21.13
2023-01-07T21:36:15.752Z,24.40
2023-01-07T21:38:43.759Z,24.73
2023-01-07T21:41:16.236Z,27.20
2023-01-07T21:43:44.030Z,21.30
2023-01-07T21:46:12.147Z,24.40
2023-01-07T21:48:42.770Z,22.33
2023-01-07T21:51:22.582Z,25.10
2023-01-07T21:53:52.288Z,24.80
2023-01-07T21:56:19.703Z,20.87
2023-01-07T21:58:47.513Z,21.43
2023-01-07T22:01:15.979Z,22.07
2023-01-07T22:03:49.920Z,25.83
2023-01-07T22:06:29.673Z,23.30
2023-01-07T22:09:00.031Z,23.03
2023-01-07T22:11:27.989Z,25.00
2023-01-07T22:13:58.132Z,23.83
2023-01-07T22:16:28.912Z,25.00
2023-01-07T22:18:57.536Z,24.47
2023-01-07T22:21:24.614Z,22.60
2023-01-07T22:23:52.205Z,29.83
2023-01-07T22:26:21.151Z,22.97
2023-01-07T22:28:55.055Z,26.03
2023-01-07T22:31:33.093Z,22.10
2023-01-07T22:34:00.118Z,23.93
2023-01-07T22:37:05.431Z,26.70
2023-01-07T22:39:40.285Z,24.47
2023-01-07T22:42:16.845Z,23.77
2023-01-07T22:44:56.195Z,26.10
2023-01-07T22:47:27.350Z,21.00
2023-01-07T22:49:54.857Z,18.87
2023-01-07T22:52:22.655Z,19.57
2023-01-07T22:54:49.551Z,17.63
2023-01-07T22:57:16.512Z,19.73
2023-01-07T22:59:44.390Z,20.53
2023-01-07T23:02:12.612Z,17.77
2023-01-07T23:04:39.553Z,17.77
2023-01-07T23:07:06.410Z,19.77
2023-01-07T23:09:33.315Z,20.23
2023-01-07T23:12:00.901Z,22.27
2023-01-07T23:14:29.823Z,23.90
2023-01-07T23:16:57.192Z,17.77
2023-01-07T23:19:24.160Z,19.57
2023-01-07T23:21:53.581Z,18.33
2023-01-07T23:24:21.944Z,22.50
2023-01-07T23:26:52.214Z,19.23
2023-01-07T23:29:19.366Z,22.87
2023-01-07T23:31:46.693Z,19.90
2023-01-07T23:34:14.715Z,20.67
2023-01-07T23:36:41.802Z,19.93
2023-01-07T23:39:08.771Z,18.57
2023-01-07T23:41:35.708Z,19.80
2023-01-07T23:44:02.703Z,19.17
2023-01-07T23:46:29.704Z,21.40
2023-01-07T23:48:56.858Z,21.63
2023-01-07T23:51:23.929Z,21.83
2023-01-07T23:53:51.674Z,17.70
2023-01-07T23:56:20.863Z,20.13
2023-01-07T23:58:49.655Z,20.57
